Hastings On Hudson, NY

10:19 AM EST on December 26, 2014 (GMT -0500)
APRSWXNET Hastings-on-hudson NY US | Change Station
CLOSE
Current Station
Personal Weather Station
Location: Dobbs Ferry, NY
Elevation: 501 ft
Nearby Weather Stations

Elev 501 ft 40.99 °N, 73.87 °W | Updated 33 minutes ago

Clear
Clear
40 °F
Feels Like 40 °F
N
1
Wind Variable Wind from SSW
Gusts 4.0 mph

Today
High -- | Low -- °F
--% Chance of Precip.
Yesterday
High -- | Low -- °F
Precip. -- in
7:18 AM 4:33 PM
Waxing Crescent, 26% visible
Pressure 30.24 in
Visibility 10.0 miles
Clouds Clear
Windchill 40 °F
Dew Point 32 °F
Humidity 73%
Rainfall 0.01 in
Snow Depth Not available.
UV 1 out of 12
Pollen .10 out of 12
Air Quality Not available.
Flu Activity Not available.
METAR KHPN 261456Z 29011G14KT 10SM CLR 06/M02 A3023 RMK AO2 SLP240 T00561022 51013

More Conditions Fewer Conditions

Pressure 30.24 in
Visibility 10.0 miles
Clouds Clear
Windchill 40 °F
Dew Point 32 °F
Humidity 73%
Rainfall 0.01 in
Snow Depth Not available.
UV 1 out of 12
Pollen .10 out of 12
Air Quality Not available.
Flu Activity Not available.
METAR KHPN 261456Z 29011G14KT 10SM CLR 06/M02 A3023 RMK AO2 SLP240 T00561022 51013

More Conditions Fewer Conditions

10-Day Weather Forecast

Almanac

Astronomy

Dec. 26, 2014 Rise Set
Actual Time
Civil Twilight
Nautical Twilight
Astronomical Twilight
Moon
Length of Visible Light
Length of Day
Tomorrow will be .
, % of the Moon is Illuminated

Today's Extremes

State Highs State Lows

Community

WunderPhotos

Upload Photos

1,780,609 photos uploaded!

WunderBlogs® & News

Nearby

Air Quality

  Air Quality AQ Index Pollutant
Not available.

Snow Depth

Station Depth Elevation

Earthquake Activity

City Distance Mag. Time & Date
Minimum magnitude displayed is 2.5.

Coastal Water Temperatures

Place Temperature

Nearby Weather Stations